HP: University of Magic Arts

Объявление

Добро пожаловать в магический Лондон!
В игре: 2025 год, сентябрь. В УМИ начинается юбилейный учебный год.

Рейтинг Ролевых Ресурсов - RPG TOP Рейтинг форумов Forum-top.ru Palantir

Информация о пользователе

Привет, Гость! Войдите или зарегистрируйтесь.


Вы здесь » HP: University of Magic Arts » Прошлое и будущее


Прошлое и будущее

Тем 1 страница 30 из 56

Тема Ответов Просмотров Последнее сообщение
1 Важно: Закрыта Шаблон эпизода  Magic
0 137 2017-12-05 13:15:50  Magic
4 74 Сегодня 00:23:54  Tessa Grace
3 Under the mistletoe  Julian Ford
4 64 Вчера 22:23:46  Jemma Sztorn
5 63 2018-08-15 23:21:01  Blaise Zabini
7 102 2018-08-15 15:47:34  Theobald Travers
6 Eruditio aspera optima est  Blaise Zabini
1 39 2018-08-12 18:54:03  Theodore Nott
13 194 2018-08-12 03:14:12  Ginny Potter
24 268 2018-08-11 01:36:43  Jennifer Williams
9 Chaque chose en son temps  Albert Flint
1 37 2018-08-09 06:02:21  Vivien Lafor
10 Разбор полета  Teddy Lupin
7 126 2018-08-08 23:47:54  Teddy Lupin
1 32 2018-08-08 23:28:05  Julian Ford
12 Who the hell are you?  Roxanne Weasley
6 64 2018-08-07 21:42:02  Roxanne Weasley
13 First sight  Farran Moran
1 31 2018-08-07 18:46:59  Farran Moran
7 126 2018-08-07 01:09:22  Farran Moran
15 188 2018-08-05 23:45:22  Teddy Lupin
16 be my blue-haired hero  Alice Longbottom
5 127 2018-08-05 17:14:09  Teddy Lupin
17 Разговор по душам  Rosaline Hogarth
0 9 2018-08-04 14:14:19  Rosaline Hogarth
4 77 2018-08-03 20:51:40  Ethan Travers
4 199 2018-08-02 17:32:39  Albert Flint
6 93 2018-07-31 14:06:12  Harry Potter
21 Лунный свет  Harry Potter
8 122 2018-07-31 13:27:23  Harry Potter
8 258 2018-07-30 17:14:41  Teddy Lupin
7 169 2018-07-27 19:08:27  Aishe Dzheba
2 64 2018-07-24 03:10:26  Draco Malfoy
10 207 2018-07-23 04:06:29  Draco Malfoy
11 333 2018-07-21 16:59:24  Aishe Dzheba
27 La dispute  Christian Burke
2 57 2018-07-17 19:30:38  Ginette Clarke
9 278 2018-07-17 17:57:17  Albert Flint
2 24 2018-07-17 12:31:51  Victoire Weasley
30 Five o'clock tea  Scorpius Malfoy
7 191 2018-07-15 03:41:00  Draco Malfoy

Вы здесь » HP: University of Magic Arts » Прошлое и будущее